Arboga, California
Current Conditions -  °F | °C
As of 2:53 PM on Wednesday 22 Oct 2014 (Local Time) from KMYV Reporting Station
Clear Clear  
Wind Chill: 23°   Ceiling: Unl
Heat Index: 23°   Visibility: 10mi
Dew Point:   Wind: 5mph
Humidity: 33%   Direction: 120°ESE
Pressure: 30.02"   Gusts: NA
Location:  39.0904°N, 121.552°W
Report Text: KMYV 222153Z AUTO 12004KT 10SM CLR 23/06 A3002 RMK AO2 SLP168 T02280056
Loading
Personal Weather Stations






























Interactive Weather Map
Tropical Storm Tracking
New forecast layout! Learn more

10-Day Weather Forecast

Advertisements
Track Severe Weather on mobile